createdAt,value
2022-09-22T00:02:25.371Z,11.30
2022-09-22T00:04:55.420Z,11.23
2022-09-22T00:07:24.995Z,11.24
2022-09-22T00:09:51.965Z,11.28
2022-09-22T00:12:19.037Z,11.16
2022-09-22T00:14:49.444Z,11.16
2022-09-22T00:17:16.394Z,11.00
2022-09-22T00:19:43.246Z,11.31
2022-09-22T00:22:12.263Z,11.26
2022-09-22T00:24:39.545Z,11.39
2022-09-22T00:27:11.091Z,11.18
2022-09-22T00:29:38.519Z,11.36
2022-09-22T00:32:07.574Z,11.40
2022-09-22T00:34:37.158Z,11.16
2022-09-22T00:37:04.376Z,11.39
2022-09-22T00:39:33.584Z,11.23
2022-09-22T00:42:00.541Z,11.22
2022-09-22T00:44:30.233Z,11.28
2022-09-22T00:47:19.508Z,11.39
2022-09-22T00:49:58.426Z,11.28
2022-09-22T00:52:36.304Z,11.48
2022-09-22T00:55:09.351Z,11.55
2022-09-22T00:57:38.864Z,11.45
2022-09-22T01:00:12.928Z,11.29
2022-09-22T01:02:42.687Z,11.07
2022-09-22T01:05:10.118Z,10.98
2022-09-22T01:07:38.081Z,11.13
2022-09-22T01:10:05.599Z,11.15
2022-09-22T01:12:32.897Z,11.15
2022-09-22T01:15:38.315Z,11.14
2022-09-22T01:18:28.347Z,11.11
2022-09-22T01:21:24.055Z,11.06
2022-09-22T01:24:18.912Z,11.20
2022-09-22T01:27:38.646Z,11.17
2022-09-22T01:30:46.635Z,11.11
2022-09-22T01:33:31.802Z,11.19
2022-09-22T01:36:44.944Z,11.28
2022-09-22T01:39:22.825Z,11.24
2022-09-22T01:42:03.986Z,11.11
2022-09-22T01:44:47.032Z,11.12
2022-09-22T01:47:35.572Z,11.05
2022-09-22T01:50:16.012Z,11.06
2022-09-22T01:52:48.324Z,11.14
2022-09-22T01:55:48.591Z,11.14
2022-09-22T01:58:31.230Z,11.24
2022-09-22T02:01:13.610Z,11.23
2022-09-22T02:04:01.921Z,11.36
2022-09-22T02:06:40.560Z,11.19
2022-09-22T02:09:13.222Z,11.28
2022-09-22T02:11:45.960Z,11.23
2022-09-22T02:14:18.086Z,11.15
2022-09-22T02:16:48.112Z,10.93
2022-09-22T02:19:34.771Z,10.90
2022-09-22T02:22:01.974Z,10.95
2022-09-22T02:24:36.102Z,11.03
2022-09-22T02:27:26.871Z,11.17
2022-09-22T02:30:08.710Z,11.10
2022-09-22T02:32:41.592Z,11.16
2022-09-22T02:35:10.022Z,11.07
2022-09-22T02:38:21.490Z,11.17
2022-09-22T02:41:42.709Z,11.01
2022-09-22T02:44:29.560Z,10.99
2022-09-22T02:47:27.739Z,10.87
2022-09-22T02:49:58.377Z,10.90
2022-09-22T02:52:28.009Z,10.84
2022-09-22T02:55:05.080Z,10.86
2022-09-22T02:57:32.348Z,10.88
2022-09-22T03:00:04.692Z,10.56
2022-09-22T03:02:31.794Z,10.61
2022-09-22T03:04:58.963Z,10.72
2022-09-22T03:07:28.428Z,10.64
2022-09-22T03:10:00.263Z,10.71
2022-09-22T03:12:29.730Z,10.83
2022-09-22T03:14:56.750Z,10.95
2022-09-22T03:17:26.924Z,10.85
2022-09-22T03:19:56.176Z,10.86
2022-09-22T03:22:23.098Z,10.70
2022-09-22T03:24:52.290Z,10.68
2022-09-22T03:27:19.188Z,10.98
2022-09-22T03:29:46.185Z,11.07
2022-09-22T03:32:20.551Z,10.85
2022-09-22T03:34:51.174Z,10.85
2022-09-22T03:37:18.317Z,10.56
2022-09-22T03:39:45.279Z,10.57
2022-09-22T03:42:12.286Z,10.59
2022-09-22T03:44:39.364Z,10.52
2022-09-22T03:47:09.315Z,10.48
2022-09-22T03:49:38.205Z,10.47
2022-09-22T03:52:08.227Z,10.37
2022-09-22T03:54:37.099Z,10.44
2022-09-22T03:57:04.688Z,10.50
2022-09-22T03:59:36.967Z,10.44
2022-09-22T04:02:06.923Z,10.54
2022-09-22T04:04:33.924Z,10.44
2022-09-22T04:07:07.101Z,10.45
2022-09-22T04:09:36.258Z,10.41
2022-09-22T04:12:03.356Z,10.24
2022-09-22T04:14:32.557Z,10.28
2022-09-22T04:17:02.113Z,10.29
2022-09-22T04:19:37.597Z,10.21
2022-09-22T04:22:07.450Z,10.18
2022-09-22T04:24:37.542Z,10.20
2022-09-22T04:27:19.635Z,10.09
2022-09-22T04:29:47.680Z,10.06
2022-09-22T04:32:14.858Z,9.97
2022-09-22T04:34:42.011Z,9.97
2022-09-22T04:37:11.694Z,9.99
2022-09-22T04:39:38.775Z,10.12
2022-09-22T04:42:06.343Z,10.05
2022-09-22T04:44:35.184Z,10.00
2022-09-22T04:47:03.220Z,9.91
2022-09-22T04:49:33.317Z,10.08
2022-09-22T04:52:03.455Z,9.98
2022-09-22T04:54:30.926Z,9.64
2022-09-22T04:56:57.921Z,9.68
2022-09-22T04:59:27.088Z,9.67
2022-09-22T05:01:56.574Z,9.65
2022-09-22T05:04:24.815Z,9.62
2022-09-22T05:06:54.918Z,9.51
2022-09-22T05:09:26.820Z,9.52
2022-09-22T05:11:58.854Z,9.34
2022-09-22T05:14:29.833Z,9.61
2022-09-22T05:17:02.057Z,9.59
2022-09-22T05:19:29.513Z,9.62
2022-09-22T05:22:00.223Z,9.55
2022-09-22T05:24:27.302Z,9.56
2022-09-22T05:26:56.930Z,9.63
2022-09-22T05:29:27.819Z,9.69
2022-09-22T05:31:55.577Z,9.58
2022-09-22T05:34:23.015Z,9.66
2022-09-22T05:36:52.854Z,9.68
2022-09-22T05:39:20.051Z,9.50
2022-09-22T05:41:49.883Z,9.62
2022-09-22T05:44:17.287Z,9.65
2022-09-22T05:46:47.041Z,9.66
2022-09-22T05:49:14.061Z,9.39
2022-09-22T05:51:41.112Z,9.62
2022-09-22T05:54:09.834Z,9.73
2022-09-22T05:56:39.950Z,9.72
2022-09-22T05:59:07.273Z,9.91
2022-09-22T06:01:39.267Z,9.87
2022-09-22T06:04:06.320Z,9.85
2022-09-22T06:06:35.925Z,10.00
2022-09-22T06:09:02.986Z,9.85
2022-09-22T06:11:30.132Z,9.94
2022-09-22T06:13:59.487Z,10.07
2022-09-22T06:16:26.660Z,10.24
2022-09-22T06:18:53.660Z,10.73
2022-09-22T06:21:25.745Z,10.90
2022-09-22T06:23:55.067Z,10.97
2022-09-22T06:26:24.513Z,11.04
2022-09-22T06:28:51.705Z,11.43
2022-09-22T06:31:18.733Z,12.25
2022-09-22T06:33:48.634Z,13.17
2022-09-22T06:36:31.896Z,14.11
2022-09-22T06:39:00.920Z,15.15
2022-09-22T06:41:33.567Z,15.71
2022-09-22T06:44:00.849Z,15.56
2022-09-22T06:46:33.303Z,16.01
2022-09-22T06:49:00.910Z,16.59
2022-09-22T06:51:32.894Z,17.32
2022-09-22T06:54:08.916Z,17.52
2022-09-22T06:56:42.582Z,17.21
2022-09-22T06:59:13.125Z,17.81
2022-09-22T07:01:42.781Z,18.95
2022-09-22T07:04:13.451Z,19.26
2022-09-22T07:06:45.791Z,19.42
2022-09-22T07:09:12.669Z,20.66
2022-09-22T07:11:47.451Z,21.25
2022-09-22T07:14:18.975Z,21.56
2022-09-22T07:16:52.529Z,21.93
2022-09-22T07:19:22.015Z,23.25
2022-09-22T07:21:48.996Z,23.53
2022-09-22T07:24:15.929Z,24.13
2022-09-22T07:26:46.580Z,23.72
2022-09-22T07:29:13.755Z,23.95
2022-09-22T07:31:41.818Z,24.25
2022-09-22T07:34:14.133Z,24.13
2022-09-22T07:36:43.350Z,24.79
2022-09-22T07:39:11.451Z,24.28
2022-09-22T07:41:44.961Z,25.33
2022-09-22T07:44:33.761Z,26.09
2022-09-22T07:47:02.316Z,25.94
2022-09-22T07:49:31.972Z,26.74
2022-09-22T07:51:59.295Z,27.38
2022-09-22T07:54:27.500Z,28.44
2022-09-22T07:57:02.278Z,27.81
2022-09-22T07:59:31.632Z,27.15
2022-09-22T08:02:00.218Z,27.87
2022-09-22T08:04:30.333Z,27.25
2022-09-22T08:06:57.282Z,27.20
2022-09-22T08:09:25.539Z,26.99
2022-09-22T08:11:54.778Z,26.48
2022-09-22T08:14:23.221Z,26.72
2022-09-22T08:16:53.665Z,27.32
2022-09-22T08:19:24.052Z,27.54
2022-09-22T08:21:53.986Z,28.58
2022-09-22T08:24:22.459Z,28.77
2022-09-22T08:26:55.705Z,28.37
2022-09-22T08:29:24.310Z,29.77
2022-09-22T08:31:54.241Z,29.21
2022-09-22T08:34:22.386Z,29.67
2022-09-22T08:36:49.873Z,30.38
2022-09-22T08:39:21.864Z,29.92
2022-09-22T08:41:48.834Z,30.11
2022-09-22T08:44:26.033Z,32.00
2022-09-22T08:46:55.066Z,32.43
2022-09-22T08:50:03.270Z,32.94
2022-09-22T08:52:41.050Z,32.88
2022-09-22T08:55:24.240Z,32.61
2022-09-22T08:58:27.107Z,32.28
2022-09-22T09:01:14.999Z,33.21
2022-09-22T09:04:12.075Z,33.71
2022-09-22T09:06:41.571Z,35.20
2022-09-22T09:09:28.706Z,34.48
2022-09-22T09:12:28.830Z,34.33
2022-09-22T09:15:27.830Z,35.63
2022-09-22T09:18:02.343Z,35.33
2022-09-22T09:20:48.064Z,34.26
2022-09-22T09:26:38.235Z,35.59
2022-09-22T09:29:08.514Z,36.59
2022-09-22T09:31:46.997Z,38.08
2022-09-22T09:34:18.122Z,38.37
2022-09-22T09:37:05.210Z,37.11
2022-09-22T09:39:37.962Z,36.53
2022-09-22T09:42:29.934Z,36.79
2022-09-22T09:45:02.513Z,36.83
2022-09-22T09:48:02.836Z,35.20
2022-09-22T09:50:39.725Z,36.73
2022-09-22T09:53:20.740Z,38.56
2022-09-22T09:55:50.663Z,38.29
2022-09-22T09:58:37.519Z,38.16
2022-09-22T10:01:06.898Z,36.85
2022-09-22T10:03:36.359Z,35.69
2022-09-22T10:06:14.507Z,36.71
2022-09-22T10:08:49.239Z,37.31
2022-09-22T10:11:31.486Z,36.99
2022-09-22T10:13:59.321Z,36.52
2022-09-22T10:16:31.578Z,36.35
2022-09-22T10:19:28.764Z,33.51
2022-09-22T10:22:24.312Z,35.34
2022-09-22T10:25:04.886Z,35.54
2022-09-22T10:27:36.755Z,36.64
2022-09-22T10:30:23.263Z,37.30
2022-09-22T10:33:25.796Z,38.07
2022-09-22T10:36:11.992Z,37.74
2022-09-22T10:38:43.684Z,37.81
2022-09-22T10:41:21.909Z,36.97
2022-09-22T10:44:20.902Z,35.65
2022-09-22T10:47:43.791Z,34.97
2022-09-22T10:50:45.862Z,37.30
2022-09-22T10:53:35.459Z,38.37
2022-09-22T10:56:33.278Z,37.14
2022-09-22T10:59:53.940Z,37.08
2022-09-22T11:02:39.649Z,39.01
2022-09-22T11:05:59.468Z,38.64
2022-09-22T11:08:44.954Z,35.39
2022-09-22T11:12:09.409Z,36.33
2022-09-22T11:15:16.246Z,37.91
2022-09-22T11:18:01.756Z,36.73
2022-09-22T11:21:01.297Z,36.19
2022-09-22T11:23:47.128Z,36.60
2022-09-22T11:26:59.419Z,34.43
2022-09-22T11:29:46.561Z,33.69
2022-09-22T11:32:37.829Z,35.79
2022-09-22T11:35:30.566Z,35.88
2022-09-22T11:38:54.308Z,34.34
2022-09-22T11:41:36.495Z,31.31
2022-09-22T11:44:49.616Z,33.03
2022-09-22T11:48:17.412Z,35.55
2022-09-22T11:51:09.086Z,32.90
2022-09-22T11:53:44.917Z,29.57
2022-09-22T11:56:51.664Z,27.70
2022-09-22T11:59:27.423Z,26.79
2022-09-22T12:02:04.760Z,30.41
2022-09-22T12:04:57.196Z,32.03
2022-09-22T12:07:44.770Z,32.83
2022-09-22T12:10:31.286Z,33.20
2022-09-22T12:13:00.981Z,35.73
2022-09-22T12:15:36.876Z,36.58
2022-09-22T12:18:14.460Z,35.26
2022-09-22T12:21:03.624Z,32.06
2022-09-22T12:23:46.383Z,28.49
2022-09-22T12:26:27.691Z,28.18
2022-09-22T12:28:58.694Z,27.72
2022-09-22T12:31:40.424Z,30.73
2022-09-22T12:34:18.435Z,32.81
2022-09-22T12:36:47.042Z,33.12
2022-09-22T12:39:19.190Z,33.61
2022-09-22T12:42:16.542Z,33.10
2022-09-22T12:45:08.812Z,30.81
2022-09-22T12:47:39.528Z,27.93
2022-09-22T12:51:17.620Z,26.30
2022-09-22T12:53:44.596Z,25.27
2022-09-22T12:56:56.060Z,24.67
2022-09-22T12:59:42.068Z,26.52
2022-09-22T13:02:14.047Z,28.01
2022-09-22T13:04:42.145Z,30.18
2022-09-22T13:07:43.021Z,29.25
2022-09-22T13:10:24.795Z,29.56
2022-09-22T13:13:06.395Z,29.26
2022-09-22T13:15:45.823Z,30.24
2022-09-22T13:18:33.993Z,31.96
2022-09-22T13:21:22.646Z,28.50
2022-09-22T13:23:55.639Z,27.25
2022-09-22T13:26:37.080Z,27.64
2022-09-22T13:29:15.501Z,28.01
2022-09-22T13:31:51.199Z,28.19
2022-09-22T13:34:36.039Z,31.34
2022-09-22T13:37:24.567Z,30.80
2022-09-22T13:39:55.987Z,29.38
2022-09-22T13:42:31.458Z,28.67
2022-09-22T13:45:00.871Z,27.87
2022-09-22T13:47:30.827Z,26.59
2022-09-22T13:50:07.444Z,25.46
2022-09-22T13:52:41.283Z,25.30
2022-09-22T13:55:33.733Z,24.78
2022-09-22T13:58:03.258Z,23.82
2022-09-22T14:01:08.794Z,23.63
2022-09-22T14:03:37.704Z,24.04
2022-09-22T14:06:10.639Z,24.79
2022-09-22T14:08:38.148Z,26.47
2022-09-22T14:11:13.523Z,27.57
2022-09-22T14:13:44.028Z,28.84
2022-09-22T14:16:39.180Z,29.17
2022-09-22T14:19:16.023Z,29.05
2022-09-22T14:21:59.137Z,29.62
2022-09-22T14:24:27.779Z,29.43
2022-09-22T14:27:08.416Z,30.05
2022-09-22T14:29:41.650Z,30.00
2022-09-22T14:32:32.841Z,30.13
2022-09-22T14:35:05.777Z,27.42
2022-09-22T14:37:42.330Z,26.84
2022-09-22T14:40:22.009Z,25.55
2022-09-22T14:43:23.923Z,24.45
2022-09-22T14:46:08.737Z,24.07
2022-09-22T14:48:36.704Z,23.67
2022-09-22T14:51:08.320Z,22.96
2022-09-22T14:53:46.019Z,22.83
2022-09-22T14:56:27.779Z,22.30
2022-09-22T14:58:58.291Z,22.28
2022-09-22T15:01:48.889Z,22.17
2022-09-22T15:04:28.458Z,21.99
2022-09-22T15:06:58.940Z,22.00
2022-09-22T15:09:42.750Z,21.75
2022-09-22T15:12:49.420Z,21.77
2022-09-22T15:15:20.938Z,22.05
2022-09-22T15:18:07.368Z,21.65
2022-09-22T15:20:42.761Z,21.15
2022-09-22T15:23:41.854Z,21.64
2022-09-22T15:26:22.891Z,22.50
2022-09-22T15:28:55.746Z,22.49
2022-09-22T15:31:26.354Z,21.74
2022-09-22T15:34:00.044Z,21.81
2022-09-22T15:36:30.643Z,21.54
2022-09-22T15:39:01.484Z,21.36
2022-09-22T15:41:31.708Z,21.17
2022-09-22T15:43:58.837Z,21.24
2022-09-22T15:46:34.139Z,20.99
2022-09-22T15:49:09.689Z,21.06
2022-09-22T15:51:38.843Z,20.98
2022-09-22T15:54:20.596Z,20.63
2022-09-22T15:56:54.630Z,20.82
2022-09-22T15:59:28.388Z,20.72
2022-09-22T16:01:57.338Z,20.74
2022-09-22T16:04:27.364Z,20.72
2022-09-22T16:06:59.375Z,20.65
2022-09-22T16:09:26.631Z,20.42
2022-09-22T16:11:55.963Z,20.42
2022-09-22T16:14:23.262Z,20.57
2022-09-22T16:16:52.522Z,20.33
2022-09-22T16:19:20.308Z,20.13
2022-09-22T16:21:54.313Z,19.89
2022-09-22T16:24:24.161Z,19.94
2022-09-22T16:26:54.465Z,19.87
2022-09-22T16:29:22.274Z,19.80
2022-09-22T16:31:51.707Z,19.89
2022-09-22T16:34:18.701Z,19.90
2022-09-22T16:36:51.217Z,20.00
2022-09-22T16:39:18.409Z,19.90
2022-09-22T16:41:46.680Z,19.87
2022-09-22T16:44:16.472Z,19.74
2022-09-22T16:46:43.825Z,19.80
2022-09-22T16:49:16.370Z,19.75
2022-09-22T16:51:50.655Z,19.74
2022-09-22T16:54:18.822Z,19.12
2022-09-22T16:56:48.909Z,19.11
2022-09-22T16:59:21.293Z,19.26
2022-09-22T17:01:49.101Z,19.20
2022-09-22T17:04:18.514Z,19.21
2022-09-22T17:06:51.702Z,19.10
2022-09-22T17:09:21.445Z,19.22
2022-09-22T17:11:49.168Z,19.14
2022-09-22T17:14:24.464Z,19.06
2022-09-22T17:16:53.803Z,18.89
2022-09-22T17:19:29.779Z,18.91
2022-09-22T17:22:01.952Z,18.80
2022-09-22T17:24:29.059Z,18.69
2022-09-22T17:27:06.993Z,18.53
2022-09-22T17:30:04.051Z,18.60
2022-09-22T17:32:31.735Z,18.64
2022-09-22T17:35:00.020Z,18.23
2022-09-22T17:37:27.283Z,18.30
2022-09-22T17:39:54.282Z,18.27
2022-09-22T17:42:21.563Z,18.33
2022-09-22T17:44:51.283Z,18.24
2022-09-22T17:47:36.731Z,18.06
2022-09-22T17:50:25.831Z,18.07
2022-09-22T17:53:24.892Z,18.14
2022-09-22T17:55:54.353Z,17.96
2022-09-22T17:58:21.996Z,17.89
2022-09-22T18:00:50.798Z,17.82
2022-09-22T18:03:18.344Z,17.85
2022-09-22T18:05:53.651Z,17.82
2022-09-22T18:08:23.279Z,17.75
2022-09-22T18:10:50.761Z,17.44
2022-09-22T18:13:20.090Z,17.17
2022-09-22T18:15:51.059Z,17.31
2022-09-22T18:18:18.326Z,17.29
2022-09-22T18:20:48.721Z,17.08
2022-09-22T18:23:18.819Z,17.15
2022-09-22T18:25:45.926Z,16.83
2022-09-22T18:28:12.797Z,16.73
2022-09-22T18:30:40.672Z,16.77
2022-09-22T18:33:10.895Z,16.74
2022-09-22T18:35:45.448Z,16.70
2022-09-22T18:38:14.086Z,16.60
2022-09-22T18:40:41.711Z,16.38
2022-09-22T18:43:11.382Z,16.36
2022-09-22T18:45:40.910Z,16.39
2022-09-22T18:48:08.176Z,16.45
2022-09-22T18:50:35.843Z,16.42
2022-09-22T18:53:02.887Z,16.51
2022-09-22T18:55:34.581Z,16.52
2022-09-22T18:58:04.604Z,16.46
2022-09-22T19:00:32.771Z,16.37
2022-09-22T19:03:02.639Z,16.23
2022-09-22T19:05:29.760Z,16.40
2022-09-22T19:07:59.347Z,16.50
2022-09-22T19:10:26.966Z,16.56
2022-09-22T19:12:54.586Z,16.57
2022-09-22T19:15:27.202Z,16.45
2022-09-22T19:17:55.841Z,16.35
2022-09-22T19:20:24.484Z,16.41
2022-09-22T19:22:55.149Z,16.41
2022-09-22T19:25:24.662Z,16.38
2022-09-22T19:27:55.984Z,16.34
2022-09-22T19:30:26.596Z,16.27
2022-09-22T19:32:56.960Z,16.24
2022-09-22T19:35:23.926Z,15.90
2022-09-22T19:37:52.010Z,15.91
2022-09-22T19:40:25.098Z,15.98
2022-09-22T19:42:53.527Z,16.06
2022-09-22T19:45:25.462Z,15.94
2022-09-22T19:48:01.797Z,15.96
2022-09-22T19:50:30.836Z,15.89
2022-09-22T19:52:57.755Z,15.90
2022-09-22T19:55:27.111Z,15.82
2022-09-22T19:57:54.245Z,15.75
2022-09-22T20:00:26.445Z,15.76
2022-09-22T20:02:58.581Z,15.71
2022-09-22T20:05:32.650Z,15.70
2022-09-22T20:08:04.023Z,15.63
2022-09-22T20:10:33.892Z,15.56
2022-09-22T20:13:01.013Z,15.44
2022-09-22T20:15:30.635Z,15.32
2022-09-22T20:17:59.762Z,15.38
2022-09-22T20:20:29.768Z,15.25
2022-09-22T20:23:04.172Z,15.26
2022-09-22T20:25:32.911Z,15.08
2022-09-22T20:28:00.578Z,15.13
2022-09-22T20:30:27.825Z,15.08
2022-09-22T20:32:55.298Z,15.03
2022-09-22T20:35:22.521Z,14.79
2022-09-22T20:37:49.895Z,14.85
2022-09-22T20:40:23.709Z,14.84
2022-09-22T20:42:54.328Z,14.86
2022-09-22T20:45:25.374Z,14.83
2022-09-22T20:47:52.778Z,14.80
2022-09-22T20:50:22.503Z,14.59
2022-09-22T20:52:51.554Z,14.63
2022-09-22T20:55:22.619Z,14.34
2022-09-22T20:57:52.709Z,14.48
2022-09-22T21:00:27.125Z,14.52
2022-09-22T21:02:54.641Z,14.42
2022-09-22T21:05:24.508Z,14.47
2022-09-22T21:08:11.505Z,14.45
2022-09-22T21:10:38.774Z,14.28
2022-09-22T21:13:06.029Z,14.08
2022-09-22T21:15:35.574Z,14.02
2022-09-22T21:18:05.478Z,14.21
2022-09-22T21:20:32.743Z,14.05
2022-09-22T21:23:00.075Z,14.18
2022-09-22T21:25:27.601Z,14.14
2022-09-22T21:27:55.006Z,14.05
2022-09-22T21:30:24.973Z,13.92
2022-09-22T21:32:52.549Z,13.94
2022-09-22T21:35:25.081Z,14.07
2022-09-22T21:37:56.094Z,14.00
2022-09-22T21:40:26.184Z,14.03
2022-09-22T21:42:55.797Z,14.06
2022-09-22T21:45:25.818Z,13.68
2022-09-22T21:47:53.154Z,13.77
2022-09-22T21:50:25.624Z,13.80
2022-09-22T21:52:55.784Z,13.75
2022-09-22T21:55:22.754Z,13.81
2022-09-22T21:57:53.223Z,13.88
2022-09-22T22:00:36.892Z,13.77
2022-09-22T22:03:26.258Z,13.60
2022-09-22T22:06:11.027Z,13.57
2022-09-22T22:08:54.284Z,13.55
2022-09-22T22:11:31.918Z,13.55
2022-09-22T22:14:02.367Z,13.45
2022-09-22T22:16:40.277Z,13.42
2022-09-22T22:19:12.518Z,13.54
2022-09-22T22:21:41.157Z,13.53
2022-09-22T22:24:34.456Z,13.65
2022-09-22T22:27:07.763Z,13.40
2022-09-22T22:29:39.114Z,13.47
2022-09-22T22:32:09.559Z,13.39
2022-09-22T22:34:37.479Z,13.49
2022-09-22T22:37:10.892Z,13.42
2022-09-22T22:39:38.221Z,13.41
2022-09-22T22:42:08.043Z,13.27
2022-09-22T22:44:35.386Z,13.18
2022-09-22T22:47:02.570Z,13.33
2022-09-22T22:49:33.978Z,13.06
2022-09-22T22:52:03.654Z,13.22
2022-09-22T22:54:30.657Z,13.24
2022-09-22T22:57:00.233Z,13.24
2022-09-22T22:59:29.568Z,13.14
2022-09-22T23:01:59.520Z,13.09
2022-09-22T23:04:29.037Z,13.09
2022-09-22T23:06:56.202Z,13.12
2022-09-22T23:09:23.246Z,13.01
2022-09-22T23:11:50.275Z,12.76
2022-09-22T23:14:17.325Z,12.99
2022-09-22T23:16:46.909Z,12.93
2022-09-22T23:19:21.257Z,12.86
2022-09-22T23:21:51.583Z,13.01
2022-09-22T23:24:19.450Z,13.11
2022-09-22T23:26:51.590Z,13.12
2022-09-22T23:29:18.522Z,13.22
2022-09-22T23:31:45.924Z,13.23
2022-09-22T23:34:12.780Z,13.05
2022-09-22T23:36:39.833Z,13.02
2022-09-22T23:39:06.870Z,12.87
2022-09-22T23:41:39.503Z,12.93
2022-09-22T23:44:06.702Z,12.97
2022-09-22T23:46:37.575Z,13.00
2022-09-22T23:49:07.831Z,12.87
2022-09-22T23:51:37.342Z,12.68
2022-09-22T23:54:07.002Z,12.76
2022-09-22T23:56:34.133Z,12.80
2022-09-22T23:59:01.064Z,12.90
